Kirvin, Texas
Current Conditions -  °F | °C
As of 12:15 AM on Friday 19 Dec 2014 (Local Time) from KLXY Reporting Station
Haze Haze  
Wind Chill: 44°   Ceiling: 400
Heat Index: 48°   Visibility: 4mi
Dew Point: 47°   Wind: 8mph
Humidity: 99%   Direction: 20°NNE
Pressure: 30.13"   Gusts: NA
Location:  31.77°N, 96.33°W
Report Text: KLXY 190615Z AUTO 02007KT 4SM BR OVC004 09/09 A3013 RMK AO2 LTG DSNT S AND SW T00870085
Loading
Personal Weather Stations






























Interactive Weather Map New forecast layout! Learn more

10-Day Weather Forecast

Advertisements
Track Severe Weather on mobile